sensor_id;sensor_type;location;lat;lon;timestamp;pressure;altitude;pressure_sealevel;temperature;humidity
17311;BME280;8773;43.300;0.394;2022-07-23T00:00:49;100119.97;;;27.76;91.61
17311;BME280;8773;43.300;0.394;2022-07-23T00:03:17;100117.31;;;27.74;91.56
17311;BME280;8773;43.300;0.394;2022-07-23T00:05:46;100115.50;;;27.75;91.44
17311;BME280;8773;43.300;0.394;2022-07-23T00:08:14;100119.13;;;27.74;91.79
17311;BME280;8773;43.300;0.394;2022-07-23T00:10:42;100112.91;;;27.71;91.88
17311;BME280;8773;43.300;0.394;2022-07-23T00:13:10;100111.97;;;27.73;91.64
17311;BME280;8773;43.300;0.394;2022-07-23T00:15:39;100112.91;;;27.71;92.25
17311;BME280;8773;43.300;0.394;2022-07-23T00:18:07;100109.34;;;27.71;92.08
17311;BME280;8773;43.300;0.394;2022-07-23T00:20:35;100105.81;;;27.70;92.29
17311;BME280;8773;43.300;0.394;2022-07-23T00:23:04;100105.81;;;27.70;92.18
17311;BME280;8773;43.300;0.394;2022-07-23T00:25:32;100112.06;;;27.69;92.17
17311;BME280;8773;43.300;0.394;2022-07-23T00:28:00;100106.69;;;27.71;92.00
17311;BME280;8773;43.300;0.394;2022-07-23T00:30:30;100098.72;;;27.68;92.33
17311;BME280;8773;43.300;0.394;2022-07-23T00:33:00;100096.91;;;27.68;92.33
17311;BME280;8773;43.300;0.394;2022-07-23T00:35:29;100096.91;;;27.68;92.45
17311;BME280;8773;43.300;0.394;2022-07-23T00:37:59;100098.75;;;27.66;92.23
17311;BME280;8773;43.300;0.394;2022-07-23T00:40:29;100092.50;;;27.66;92.24
17311;BME280;8773;43.300;0.394;2022-07-23T00:42:57;100087.16;;;27.64;92.34
17311;BME280;8773;43.300;0.394;2022-07-23T00:45:26;100090.72;;;27.66;92.04
17311;BME280;8773;43.300;0.394;2022-07-23T00:47:55;100088.94;;;27.64;92.57
17311;BME280;8773;43.300;0.394;2022-07-23T00:50:23;100085.38;;;27.65;92.24
17311;BME280;8773;43.300;0.394;2022-07-23T00:52:52;100088.06;;;27.63;92.48
17311;BME280;8773;43.300;0.394;2022-07-23T00:55:20;100082.72;;;27.63;92.21
17311;BME280;8773;43.300;0.394;2022-07-23T00:57:50;100078.25;;;27.62;92.54
17311;BME280;8773;43.300;0.394;2022-07-23T01:00:20;100077.34;;;27.63;92.42
17311;BME280;8773;43.300;0.394;2022-07-23T01:02:48;100079.19;;;27.61;92.22
17311;BME280;8773;43.300;0.394;2022-07-23T01:05:17;100072.00;;;27.62;92.37
17311;BME280;8773;43.300;0.394;2022-07-23T01:07:49;100074.78;;;27.59;92.73
17311;BME280;8773;43.300;0.394;2022-07-23T01:10:22;100072.97;;;27.59;92.75
17311;BME280;8773;43.300;0.394;2022-07-23T01:13:02;100079.28;;;27.57;92.71
17311;BME280;8773;43.300;0.394;2022-07-23T01:15:31;100078.34;;;27.59;92.56
17311;BME280;8773;43.300;0.394;2022-07-23T01:18:00;100074.81;;;27.57;92.49
17311;BME280;8773;43.300;0.394;2022-07-23T01:20:28;100065.88;;;27.57;92.68
17311;BME280;8773;43.300;0.394;2022-07-23T01:22:58;100067.63;;;27.58;92.56
17311;BME280;8773;43.300;0.394;2022-07-23T01:25:26;100068.53;;;27.58;92.52
17311;BME280;8773;43.300;0.394;2022-07-23T01:27:54;100057.84;;;27.57;92.39
17311;BME280;8773;43.300;0.394;2022-07-23T01:30:22;100061.47;;;27.54;92.92
17311;BME280;8773;43.300;0.394;2022-07-23T01:32:50;100060.59;;;27.54;92.72
17311;BME280;8773;43.300;0.394;2022-07-23T01:35:18;100057.00;;;27.55;92.60
17311;BME280;8773;43.300;0.394;2022-07-23T01:37:46;100059.75;;;27.53;92.68
17311;BME280;8773;43.300;0.394;2022-07-23T01:40:16;100051.72;;;27.52;93.17
17311;BME280;8773;43.300;0.394;2022-07-23T01:42:44;100055.28;;;27.52;92.79
17311;BME280;8773;43.300;0.394;2022-07-23T01:45:13;100053.53;;;27.51;92.53
17311;BME280;8773;43.300;0.394;2022-07-23T01:47:41;100052.66;;;27.50;92.59
17311;BME280;8773;43.300;0.394;2022-07-23T01:50:09;100055.34;;;27.50;92.55
17311;BME280;8773;43.300;0.394;2022-07-23T01:52:37;100050.88;;;27.49;92.58
17311;BME280;8773;43.300;0.394;2022-07-23T01:55:06;100049.06;;;27.50;92.52
17311;BME280;8773;43.300;0.394;2022-07-23T01:57:36;100044.63;;;27.49;92.47
17311;BME280;8773;43.300;0.394;2022-07-23T02:00:05;100044.63;;;27.49;92.60
17311;BME280;8773;43.300;0.394;2022-07-23T02:02:33;100043.78;;;27.47;93.22
17311;BME280;8773;43.300;0.394;2022-07-23T02:05:01;100039.31;;;27.47;93.06
17311;BME280;8773;43.300;0.394;2022-07-23T02:07:29;100041.09;;;27.47;92.94
17311;BME280;8773;43.300;0.394;2022-07-23T02:10:00;100043.84;;;27.45;92.71
17311;BME280;8773;43.300;0.394;2022-07-23T02:12:28;100037.59;;;27.45;92.74
17311;BME280;8773;43.300;0.394;2022-07-23T02:14:58;100028.66;;;27.44;92.67
17311;BME280;8773;43.300;0.394;2022-07-23T02:17:26;100030.47;;;27.44;92.67
17311;BME280;8773;43.300;0.394;2022-07-23T02:19:54;100034.91;;;27.45;93.18
17311;BME280;8773;43.300;0.394;2022-07-23T02:22:22;100034.06;;;27.43;92.88
17311;BME280;8773;43.300;0.394;2022-07-23T02:24:50;100025.13;;;27.44;93.28
17311;BME280;8773;43.300;0.394;2022-07-23T02:27:18;100026.06;;;27.41;93.21
17311;BME280;8773;43.300;0.394;2022-07-23T02:29:45;100031.38;;;27.43;92.94
17311;BME280;8773;43.300;0.394;2022-07-23T02:32:15;100019.84;;;27.41;93.16
17311;BME280;8773;43.300;0.394;2022-07-23T02:34:43;100022.53;;;27.41;93.38
17311;BME280;8773;43.300;0.394;2022-07-23T02:37:11;100026.09;;;27.40;93.34
17311;BME280;8773;43.300;0.394;2022-07-23T02:39:39;100017.19;;;27.39;93.04
17311;BME280;8773;43.300;0.394;2022-07-23T02:42:07;100026.16;;;27.38;93.42
17311;BME280;8773;43.300;0.394;2022-07-23T02:44:35;100027.06;;;27.37;93.45
17311;BME280;8773;43.300;0.394;2022-07-23T02:47:03;100025.31;;;27.36;93.58
17311;BME280;8773;43.300;0.394;2022-07-23T02:49:33;100021.75;;;27.36;93.71
17311;BME280;8773;43.300;0.394;2022-07-23T02:52:01;100029.72;;;27.37;93.30
17311;BME280;8773;43.300;0.394;2022-07-23T02:54:29;100028.84;;;27.37;93.56
17311;BME280;8773;43.300;0.394;2022-07-23T02:56:57;100032.47;;;27.36;93.54
17311;BME280;8773;43.300;0.394;2022-07-23T02:59:25;100025.31;;;27.35;93.56
17311;BME280;8773;43.300;0.394;2022-07-23T03:01:53;100034.31;;;27.32;93.73
17311;BME280;8773;43.300;0.394;2022-07-23T03:04:21;100026.25;;;27.34;93.47
17311;BME280;8773;43.300;0.394;2022-07-23T03:06:51;100023.59;;;27.32;93.85
17311;BME280;8773;43.300;0.394;2022-07-23T03:09:19;100022.72;;;27.32;93.52
17311;BME280;8773;43.300;0.394;2022-07-23T03:11:47;100026.34;;;27.31;93.88
17311;BME280;8773;43.300;0.394;2022-07-23T03:14:15;100020.06;;;27.30;93.95
17311;BME280;8773;43.300;0.394;2022-07-23T03:16:43;100025.41;;;27.32;94.07
17311;BME280;8773;43.300;0.394;2022-07-23T03:19:11;100027.25;;;27.29;94.13
17311;BME280;8773;43.300;0.394;2022-07-23T03:21:39;100029.88;;;27.31;93.90
17311;BME280;8773;43.300;0.394;2022-07-23T03:24:09;100031.72;;;27.29;93.62
17311;BME280;8773;43.300;0.394;2022-07-23T03:26:37;100022.81;;;27.28;93.67
17311;BME280;8773;43.300;0.394;2022-07-23T03:29:06;100025.50;;;27.28;94.34
17311;BME280;8773;43.300;0.394;2022-07-23T03:31:34;100021.03;;;27.27;93.69
17311;BME280;8773;43.300;0.394;2022-07-23T03:34:02;100014.78;;;27.27;94.07
17311;BME280;8773;43.300;0.394;2022-07-23T03:36:30;100023.75;;;27.26;93.89
17311;BME280;8773;43.300;0.394;2022-07-23T03:38:58;100020.22;;;27.25;94.08
17311;BME280;8773;43.300;0.394;2022-07-23T03:41:29;100016.63;;;27.25;93.70
17311;BME280;8773;43.300;0.394;2022-07-23T03:43:57;100019.34;;;27.23;94.03
17311;BME280;8773;43.300;0.394;2022-07-23T03:46:25;100022.03;;;27.23;94.02
17311;BME280;8773;43.300;0.394;2022-07-23T03:48:53;100026.53;;;27.21;94.07
17311;BME280;8773;43.300;0.394;2022-07-23T03:51:24;100024.75;;;27.22;93.79
17311;BME280;8773;43.300;0.394;2022-07-23T03:53:52;100022.09;;;27.20;94.00
17311;BME280;8773;43.300;0.394;2022-07-23T03:56:21;100020.34;;;27.19;93.83
17311;BME280;8773;43.300;0.394;2022-07-23T03:58:51;100016.78;;;27.19;93.49
17311;BME280;8773;43.300;0.394;2022-07-23T04:01:19;100023.00;;;27.19;94.14
17311;BME280;8773;43.300;0.394;2022-07-23T04:03:47;100013.25;;;27.17;94.20
17311;BME280;8773;43.300;0.394;2022-07-23T04:06:15;100025.72;;;27.18;93.66
17311;BME280;8773;43.300;0.394;2022-07-23T04:08:43;100023.00;;;27.19;93.99
17311;BME280;8773;43.300;0.394;2022-07-23T04:11:11;100026.63;;;27.18;93.76
17311;BME280;8773;43.300;0.394;2022-07-23T04:13:39;100020.41;;;27.16;93.62
17311;BME280;8773;43.300;0.394;2022-07-23T04:16:08;100023.09;;;27.16;93.78
17311;BME280;8773;43.300;0.394;2022-07-23T04:18:37;100023.13;;;27.15;94.35
17311;BME280;8773;43.300;0.394;2022-07-23T04:21:05;100029.34;;;27.15;93.78
17311;BME280;8773;43.300;0.394;2022-07-23T04:23:33;100023.13;;;27.15;94.13
17311;BME280;8773;43.300;0.394;2022-07-23T04:26:01;100024.94;;;27.13;94.07
17311;BME280;8773;43.300;0.394;2022-07-23T04:28:29;100026.75;;;27.12;94.41
17311;BME280;8773;43.300;0.394;2022-07-23T04:30:57;100031.22;;;27.12;94.01
17311;BME280;8773;43.300;0.394;2022-07-23T04:33:27;100029.41;;;27.12;94.02
17311;BME280;8773;43.300;0.394;2022-07-23T04:35:55;100029.47;;;27.11;93.92
17311;BME280;8773;43.300;0.394;2022-07-23T04:38:23;100033.94;;;27.10;94.48
17311;BME280;8773;43.300;0.394;2022-07-23T04:40:51;100045.53;;;27.11;94.53
17311;BME280;8773;43.300;0.394;2022-07-23T04:43:19;100038.41;;;27.10;94.14
17311;BME280;8773;43.300;0.394;2022-07-23T04:45:47;100037.53;;;27.09;94.17
17311;BME280;8773;43.300;0.394;2022-07-23T04:48:16;100034.84;;;27.09;94.00
17311;BME280;8773;43.300;0.394;2022-07-23T04:50:45;100041.13;;;27.08;93.91
17311;BME280;8773;43.300;0.394;2022-07-23T04:53:13;100046.50;;;27.08;94.65
17311;BME280;8773;43.300;0.394;2022-07-23T04:55:41;100044.72;;;27.07;94.18
17311;BME280;8773;43.300;0.394;2022-07-23T04:58:09;100041.16;;;27.06;94.60
17311;BME280;8773;43.300;0.394;2022-07-23T05:00:37;100035.78;;;27.05;94.39
17311;BME280;8773;43.300;0.394;2022-07-23T05:03:05;100042.09;;;27.05;94.68
17311;BME280;8773;43.300;0.394;2022-07-23T05:05:34;100044.75;;;27.05;94.57
17311;BME280;8773;43.300;0.394;2022-07-23T05:08:04;100041.16;;;27.05;94.58
17311;BME280;8773;43.300;0.394;2022-07-23T05:10:33;100048.31;;;27.03;94.82
17311;BME280;8773;43.300;0.394;2022-07-23T05:13:01;100042.06;;;27.04;94.57
17311;BME280;8773;43.300;0.394;2022-07-23T05:15:29;100041.19;;;27.03;94.87
17311;BME280;8773;43.300;0.394;2022-07-23T05:17:58;100042.97;;;27.03;95.03
17311;BME280;8773;43.300;0.394;2022-07-23T05:20:26;100038.53;;;27.03;94.54
17311;BME280;8773;43.300;0.394;2022-07-23T05:22:54;100053.69;;;27.03;94.80
17311;BME280;8773;43.300;0.394;2022-07-23T05:25:23;100043.91;;;27.00;94.85
17311;BME280;8773;43.300;0.394;2022-07-23T05:27:51;100048.38;;;27.01;94.76
17311;BME280;8773;43.300;0.394;2022-07-23T05:30:20;100047.53;;;26.99;95.14
17311;BME280;8773;43.300;0.394;2022-07-23T05:32:48;100052.88;;;26.99;94.93
17311;BME280;8773;43.300;0.394;2022-07-23T05:35:16;100047.53;;;26.98;95.16
17311;BME280;8773;43.300;0.394;2022-07-23T05:37:44;100052.88;;;26.99;95.31
17311;BME280;8773;43.300;0.394;2022-07-23T05:40:12;100050.22;;;26.98;95.31
17311;BME280;8773;43.300;0.394;2022-07-23T05:42:42;100050.19;;;26.99;95.17
17311;BME280;8773;43.300;0.394;2022-07-23T05:45:11;100044.88;;;26.98;95.22
17311;BME280;8773;43.300;0.394;2022-07-23T05:47:40;100054.72;;;26.97;94.60
17311;BME280;8773;43.300;0.394;2022-07-23T05:50:09;100052.03;;;26.97;94.93
17311;BME280;8773;43.300;0.394;2022-07-23T05:52:37;100052.03;;;26.97;94.89
17311;BME280;8773;43.300;0.394;2022-07-23T05:55:07;100056.53;;;26.95;95.60
17311;BME280;8773;43.300;0.394;2022-07-23T05:57:35;100046.75;;;26.94;95.61
17311;BME280;8773;43.300;0.394;2022-07-23T06:00:06;100049.44;;;26.93;95.74
17311;BME280;8773;43.300;0.394;2022-07-23T06:02:35;100061.06;;;26.93;95.07
17311;BME280;8773;43.300;0.394;2022-07-23T06:05:04;100056.59;;;26.92;95.20
17311;BME280;8773;43.300;0.394;2022-07-23T06:07:34;100060.22;;;26.91;95.38
17311;BME280;8773;43.300;0.394;2022-07-23T06:10:03;100056.59;;;26.92;95.17
17311;BME280;8773;43.300;0.394;2022-07-23T06:12:31;100058.41;;;26.92;95.00
17311;BME280;8773;43.300;0.394;2022-07-23T06:15:00;100058.44;;;26.90;95.17
17311;BME280;8773;43.300;0.394;2022-07-23T06:17:29;100052.19;;;26.90;95.43
17311;BME280;8773;43.300;0.394;2022-07-23T06:19:57;100047.72;;;26.90;95.21
17311;BME280;8773;43.300;0.394;2022-07-23T06:22:25;100056.69;;;26.89;95.18
17311;BME280;8773;43.300;0.394;2022-07-23T06:24:53;100042.38;;;26.90;95.53
17311;BME280;8773;43.300;0.394;2022-07-23T06:27:21;100054.03;;;26.88;94.99
17311;BME280;8773;43.300;0.394;2022-07-23T06:29:52;100048.66;;;26.88;95.52
17311;BME280;8773;43.300;0.394;2022-07-23T06:32:20;100043.31;;;26.88;95.38
17311;BME280;8773;43.300;0.394;2022-07-23T06:34:49;100050.53;;;26.85;95.08
17311;BME280;8773;43.300;0.394;2022-07-23T06:37:17;100054.97;;;26.85;95.60
17311;BME280;8773;43.300;0.394;2022-07-23T06:39:46;100056.75;;;26.86;95.37
17311;BME280;8773;43.300;0.394;2022-07-23T06:42:14;100049.63;;;26.85;95.51
17311;BME280;8773;43.300;0.394;2022-07-23T06:44:42;100061.25;;;26.84;94.96
17311;BME280;8773;43.300;0.394;2022-07-23T06:47:10;100060.38;;;26.83;95.35
17311;BME280;8773;43.300;0.394;2022-07-23T06:49:38;100063.91;;;26.84;95.42
17311;BME280;8773;43.300;0.394;2022-07-23T06:52:09;100063.94;;;26.82;94.81
17311;BME280;8773;43.300;0.394;2022-07-23T06:54:37;100060.38;;;26.82;94.75
17311;BME280;8773;43.300;0.394;2022-07-23T06:57:05;100061.31;;;26.81;95.26
17311;BME280;8773;43.300;0.394;2022-07-23T06:59:33;100059.50;;;26.81;95.09
17311;BME280;8773;43.300;0.394;2022-07-23T07:02:02;100060.41;;;26.80;95.28
17311;BME280;8773;43.300;0.394;2022-07-23T07:04:31;100067.53;;;26.81;95.24
17311;BME280;8773;43.300;0.394;2022-07-23T07:06:59;100076.44;;;26.82;94.51
17311;BME280;8773;43.300;0.394;2022-07-23T07:09:28;100080.06;;;26.81;94.56
17311;BME280;8773;43.300;0.394;2022-07-23T07:11:56;100074.69;;;26.81;94.60
17311;BME280;8773;43.300;0.394;2022-07-23T07:14:24;100073.84;;;26.79;95.17
17311;BME280;8773;43.300;0.394;2022-07-23T07:16:52;100081.88;;;26.79;95.31
17311;BME280;8773;43.300;0.394;2022-07-23T07:19:20;100081.00;;;26.78;95.10
17311;BME280;8773;43.300;0.394;2022-07-23T07:21:48;100087.22;;;26.79;95.38
17311;BME280;8773;43.300;0.394;2022-07-23T07:24:16;100084.56;;;26.77;95.18
17311;BME280;8773;43.300;0.394;2022-07-23T07:26:45;100079.22;;;26.77;95.15
17311;BME280;8773;43.300;0.394;2022-07-23T07:29:13;100084.56;;;26.77;95.55
17311;BME280;8773;43.300;0.394;2022-07-23T07:31:42;100090.78;;;26.78;94.96
17311;BME280;8773;43.300;0.394;2022-07-23T07:34:10;100091.75;;;26.75;95.47
17311;BME280;8773;43.300;0.394;2022-07-23T07:36:38;100089.06;;;26.75;95.16
17311;BME280;8773;43.300;0.394;2022-07-23T07:39:06;100090.88;;;26.75;95.87
17311;BME280;8773;43.300;0.394;2022-07-23T07:41:37;100092.66;;;26.74;95.73
17311;BME280;8773;43.300;0.394;2022-07-23T07:44:06;100094.47;;;26.74;95.40
17311;BME280;8773;43.300;0.394;2022-07-23T07:46:34;100097.16;;;26.74;95.86
17311;BME280;8773;43.300;0.394;2022-07-23T07:49:02;100091.81;;;26.72;95.81
17311;BME280;8773;43.300;0.394;2022-07-23T07:51:31;100098.94;;;26.73;96.07
17311;BME280;8773;43.300;0.394;2022-07-23T07:53:59;100097.16;;;26.74;95.78
17311;BME280;8773;43.300;0.394;2022-07-23T07:56:28;100102.50;;;26.72;95.80
17311;BME280;8773;43.300;0.394;2022-07-23T07:58:57;100103.38;;;26.73;95.59
17311;BME280;8773;43.300;0.394;2022-07-23T08:01:27;100094.53;;;26.71;96.21
17311;BME280;8773;43.300;0.394;2022-07-23T08:03:55;100099.91;;;26.69;95.83
17311;BME280;8773;43.300;0.394;2022-07-23T08:06:23;100095.47;;;26.68;96.50
17311;BME280;8773;43.300;0.394;2022-07-23T08:08:51;100104.34;;;26.70;96.49
17311;BME280;8773;43.300;0.394;2022-07-23T08:11:19;100101.72;;;26.69;96.03
17311;BME280;8773;43.300;0.394;2022-07-23T08:13:47;100097.25;;;26.68;96.51
17311;BME280;8773;43.300;0.394;2022-07-23T08:16:15;100099.94;;;26.68;96.03
17311;BME280;8773;43.300;0.394;2022-07-23T08:18:45;100104.41;;;26.67;96.72
17311;BME280;8773;43.300;0.394;2022-07-23T08:21:13;100093.69;;;26.67;96.78
17311;BME280;8773;43.300;0.394;2022-07-23T08:23:41;100102.66;;;26.66;96.41
17311;BME280;8773;43.300;0.394;2022-07-23T08:26:09;100096.44;;;26.66;96.54
17311;BME280;8773;43.300;0.394;2022-07-23T08:28:37;100093.75;;;26.66;96.57
17311;BME280;8773;43.300;0.394;2022-07-23T08:31:05;100088.41;;;26.66;96.89
17311;BME280;8773;43.300;0.394;2022-07-23T08:33:33;100084.81;;;26.65;96.83
17311;BME280;8773;43.300;0.394;2022-07-23T08:36:04;100089.28;;;26.64;96.88
17311;BME280;8773;43.300;0.394;2022-07-23T08:38:33;100089.28;;;26.64;96.88
17311;BME280;8773;43.300;0.394;2022-07-23T08:41:02;100085.72;;;26.66;96.63
17311;BME280;8773;43.300;0.394;2022-07-23T08:43:32;100087.53;;;26.63;97.04
17311;BME280;8773;43.300;0.394;2022-07-23T08:46:02;100089.31;;;26.63;96.36
17311;BME280;8773;43.300;0.394;2022-07-23T08:48:33;100084.88;;;26.62;96.88
17311;BME280;8773;43.300;0.394;2022-07-23T08:51:04;100081.28;;;26.63;96.71
17311;BME280;8773;43.300;0.394;2022-07-23T08:53:34;100087.56;;;26.62;96.69
17311;BME280;8773;43.300;0.394;2022-07-23T08:56:04;100082.22;;;26.62;96.63
17311;BME280;8773;43.300;0.394;2022-07-23T08:58:34;100081.34;;;26.60;97.21
17311;BME280;8773;43.300;0.394;2022-07-23T09:01:02;100082.22;;;26.60;97.22
17311;BME280;8773;43.300;0.394;2022-07-23T09:03:32;100077.81;;;26.59;97.03
17311;BME280;8773;43.300;0.394;2022-07-23T09:06:01;100087.63;;;26.59;96.52
17311;BME280;8773;43.300;0.394;2022-07-23T09:08:37;100091.19;;;26.58;96.38
17311;BME280;8773;43.300;0.394;2022-07-23T09:11:06;100086.69;;;26.60;96.55
17311;BME280;8773;43.300;0.394;2022-07-23T09:13:37;100094.78;;;26.57;97.15
17311;BME280;8773;43.300;0.394;2022-07-23T09:16:07;100088.50;;;26.58;97.06
17311;BME280;8773;43.300;0.394;2022-07-23T09:18:42;100085.88;;;26.56;96.54
17311;BME280;8773;43.300;0.394;2022-07-23T09:21:20;100083.22;;;26.55;96.81
17311;BME280;8773;43.300;0.394;2022-07-23T09:23:55;100082.34;;;26.56;96.62
17311;BME280;8773;43.300;0.394;2022-07-23T09:26:32;100084.19;;;26.52;96.59
17311;BME280;8773;43.300;0.394;2022-07-23T09:29:06;100087.69;;;26.56;96.73
17311;BME280;8773;43.300;0.394;2022-07-23T09:31:47;100088.63;;;26.53;97.03
17311;BME280;8773;43.300;0.394;2022-07-23T09:34:19;100090.41;;;26.53;96.37
17311;BME280;8773;43.300;0.394;2022-07-23T09:36:50;100085.91;;;26.55;96.84
17311;BME280;8773;43.300;0.394;2022-07-23T09:39:25;100089.53;;;26.52;96.88
17311;BME280;8773;43.300;0.394;2022-07-23T09:41:55;100094.00;;;26.53;96.93
17311;BME280;8773;43.300;0.394;2022-07-23T09:44:23;100085.06;;;26.53;96.96
17311;BME280;8773;43.300;0.394;2022-07-23T09:46:58;100094.00;;;26.53;96.38
17311;BME280;8773;43.300;0.394;2022-07-23T09:49:27;100089.53;;;26.52;96.60
17311;BME280;8773;43.300;0.394;2022-07-23T09:51:57;100090.41;;;26.53;96.68
17311;BME280;8773;43.300;0.394;2022-07-23T09:54:34;100090.47;;;26.50;96.56
17311;BME280;8773;43.300;0.394;2022-07-23T09:57:05;100093.13;;;26.51;96.81
17311;BME280;8773;43.300;0.394;2022-07-23T09:59:37;100104.69;;;26.53;96.69
17311;BME280;8773;43.300;0.394;2022-07-23T10:02:06;100096.66;;;26.53;96.89
17311;BME280;8773;43.300;0.394;2022-07-23T10:04:35;100109.13;;;26.53;96.38
17311;BME280;8773;43.300;0.394;2022-07-23T10:07:05;100100.22;;;26.54;96.59
17311;BME280;8773;43.300;0.394;2022-07-23T10:09:37;100101.09;;;26.53;95.90
17311;BME280;8773;43.300;0.394;2022-07-23T10:12:09;100094.00;;;26.52;96.52
17311;BME280;8773;43.300;0.394;2022-07-23T10:14:56;100092.19;;;26.52;96.01
17311;BME280;8773;43.300;0.394;2022-07-23T10:17:25;100089.50;;;26.54;95.79
17311;BME280;8773;43.300;0.394;2022-07-23T10:19:55;100086.91;;;26.51;96.01
17311;BME280;8773;43.300;0.394;2022-07-23T10:22:25;100085.97;;;26.52;95.90
17311;BME280;8773;43.300;0.394;2022-07-23T10:25:04;100087.78;;;26.50;95.96
17311;BME280;8773;43.300;0.394;2022-07-23T10:30:43;100090.47;;;26.50;95.65
17311;BME280;8773;43.300;0.394;2022-07-23T10:33:23;100088.72;;;26.49;95.80
17311;BME280;8773;43.300;0.394;2022-07-23T10:36:00;100084.25;;;26.49;96.17
17311;BME280;8773;43.300;0.394;2022-07-23T10:38:32;100082.44;;;26.51;95.85
17311;BME280;8773;43.300;0.394;2022-07-23T10:41:05;100077.06;;;26.51;95.99
17311;BME280;8773;43.300;0.394;2022-07-23T10:43:33;100083.31;;;26.52;96.06
17311;BME280;8773;43.300;0.394;2022-07-23T10:46:23;100073.56;;;26.48;95.56
17311;BME280;8773;43.300;0.394;2022-07-23T10:49:24;100080.75;;;26.46;95.50
17311;BME280;8773;43.300;0.394;2022-07-23T10:52:17;100076.28;;;26.46;95.63
17311;BME280;8773;43.300;0.394;2022-07-23T10:54:47;100075.28;;;26.50;95.70
17311;BME280;8773;43.300;0.394;2022-07-23T10:57:19;100072.66;;;26.49;95.54
17311;BME280;8773;43.300;0.394;2022-07-23T11:00:14;100070.00;;;26.47;95.37
17311;BME280;8773;43.300;0.394;2022-07-23T11:02:44;100069.06;;;26.50;95.87
17311;BME280;8773;43.300;0.394;2022-07-23T11:05:14;100069.06;;;26.50;95.56
17311;BME280;8773;43.300;0.394;2022-07-23T11:08:11;100064.66;;;26.47;95.02
17311;BME280;8773;43.300;0.394;2022-07-23T11:10:43;100069.94;;;26.50;95.68
17311;BME280;8773;43.300;0.394;2022-07-23T11:13:46;100066.44;;;26.45;95.06
17311;BME280;8773;43.300;0.394;2022-07-23T11:16:25;100061.09;;;26.48;94.81
17311;BME280;8773;43.300;0.394;2022-07-23T11:18:57;100057.50;;;26.49;95.01
17311;BME280;8773;43.300;0.394;2022-07-23T11:21:56;100060.22;;;26.46;94.99
17311;BME280;8773;43.300;0.394;2022-07-23T11:24:24;100054.81;;;26.51;94.94
17311;BME280;8773;43.300;0.394;2022-07-23T11:26:58;100046.78;;;26.49;94.91
17311;BME280;8773;43.300;0.394;2022-07-23T11:29:47;100052.16;;;26.48;95.20
17311;BME280;8773;43.300;0.394;2022-07-23T11:32:22;100048.53;;;26.50;95.15
17311;BME280;8773;43.300;0.394;2022-07-23T11:34:52;100055.69;;;26.51;94.49
17311;BME280;8773;43.300;0.394;2022-07-23T11:37:41;100050.41;;;26.48;94.59
17311;BME280;8773;43.300;0.394;2022-07-23T11:40:12;100046.72;;;26.52;94.68
17311;BME280;8773;43.300;0.394;2022-07-23T11:42:52;100048.53;;;26.50;94.21
17311;BME280;8773;43.300;0.394;2022-07-23T11:45:22;100038.69;;;26.54;93.98
17311;BME280;8773;43.300;0.394;2022-07-23T11:47:51;100044.91;;;26.53;93.87
17311;BME280;8773;43.300;0.394;2022-07-23T11:50:19;100037.81;;;26.53;93.75
17311;BME280;8773;43.300;0.394;2022-07-23T11:52:47;100028.88;;;26.53;93.95
17311;BME280;8773;43.300;0.394;2022-07-23T11:55:15;100044.91;;;26.54;93.81
17311;BME280;8773;43.300;0.394;2022-07-23T11:57:43;100035.06;;;26.55;94.00
17311;BME280;8773;43.300;0.394;2022-07-23T12:00:13;100043.97;;;26.55;93.20
17311;BME280;8773;43.300;0.394;2022-07-23T12:02:46;100041.34;;;26.54;93.23
17311;BME280;8773;43.300;0.394;2022-07-23T12:05:15;100038.63;;;26.55;93.23
17311;BME280;8773;43.300;0.394;2022-07-23T12:07:44;100035.06;;;26.55;93.56
17311;BME280;8773;43.300;0.394;2022-07-23T12:10:18;100034.19;;;26.54;93.22
17311;BME280;8773;43.300;0.394;2022-07-23T12:12:49;100031.50;;;26.56;93.82
17311;BME280;8773;43.300;0.394;2022-07-23T12:15:20;100029.72;;;26.56;93.14
17311;BME280;8773;43.300;0.394;2022-07-23T12:17:51;100021.69;;;26.56;93.24
17311;BME280;8773;43.300;0.394;2022-07-23T12:20:23;100020.81;;;26.56;93.01
17311;BME280;8773;43.300;0.394;2022-07-23T12:22:55;100015.47;;;26.56;92.85
17311;BME280;8773;43.300;0.394;2022-07-23T12:25:26;100014.50;;;26.58;93.19
17311;BME280;8773;43.300;0.394;2022-07-23T12:28:02;100012.78;;;26.56;93.17
17311;BME280;8773;43.300;0.394;2022-07-23T12:30:33;100009.97;;;26.60;92.95
17311;BME280;8773;43.300;0.394;2022-07-23T12:33:03;100010.03;;;26.59;92.81
17311;BME280;8773;43.300;0.394;2022-07-23T12:35:35;100003.81;;;26.58;93.38
17311;BME280;8773;43.300;0.394;2022-07-23T12:38:05;99997.50;;;26.61;93.31
17311;BME280;8773;43.300;0.394;2022-07-23T12:40:36;100001.09;;;26.60;93.16
17311;BME280;8773;43.300;0.394;2022-07-23T12:43:06;99996.59;;;26.60;93.26
17311;BME280;8773;43.300;0.394;2022-07-23T12:45:46;100002.91;;;26.58;92.72
17311;BME280;8773;43.300;0.394;2022-07-23T12:48:20;99983.28;;;26.59;93.29
17311;BME280;8773;43.300;0.394;2022-07-23T12:50:51;99989.50;;;26.59;93.15
17311;BME280;8773;43.300;0.394;2022-07-23T12:53:22;99986.75;;;26.62;93.08
17311;BME280;8773;43.300;0.394;2022-07-23T12:55:58;99984.13;;;26.61;92.61
17311;BME280;8773;43.300;0.394;2022-07-23T12:58:48;99977.84;;;26.63;92.60
17311;BME280;8773;43.300;0.394;2022-07-23T13:01:26;99973.44;;;26.61;93.13
17311;BME280;8773;43.300;0.394;2022-07-23T13:03:58;99968.88;;;26.64;92.69
17311;BME280;8773;43.300;0.394;2022-07-23T13:06:28;99978.69;;;26.66;92.58
17311;BME280;8773;43.300;0.394;2022-07-23T13:08:57;99972.41;;;26.67;92.95
17311;BME280;8773;43.300;0.394;2022-07-23T13:11:27;99968.00;;;26.66;92.75
17311;BME280;8773;43.300;0.394;2022-07-23T13:13:56;99964.38;;;26.67;92.83
17311;BME280;8773;43.300;0.394;2022-07-23T13:16:27;99961.69;;;26.68;92.88
17311;BME280;8773;43.300;0.394;2022-07-23T13:18:57;99962.59;;;26.67;92.51